PWSweather.com
Personal Weather Stations
Station Observations
WATERF01
WaterfordIE

WaterfordIE

Lat: 52.2412507, Lon: -7.1414691

Elevation: 65

Station Type: Davis Vantage Vue

Latest ConditionsUpdated 5:20:00 AM GMT Thursday, Jun 27, 2019
Currently Today's Max Today's Min Today's Average
Temperature 59.1°F15.1°C 60.2°F15.7°C 58.4°F14.7°C 59.0°F15.0°C
Dew Point 53.9°F12.2°C 54.7°F12.6°C 53.9°F12.2°C 54.3°F12.4°C
Winds 3.5 mph NE5.6 kmh NE 5.8 mph -9.3 kmh - - 3.6 mph 5.8 kmh
Wind Gusts 11.5 mph18.5 kmh 12.7 mph20.4 kmh - -
Humidity 83% 86% 82% 84%
Pressure 30.36 in1028.1 mb 30.37 in1028.4 mb 30.34 in1027.4 mb -
Hour Temp Dew Point Humidity Winds Wind Gusts Pressure Precip Precip Rate Daily Precip Total
05:20 AM 59.1°F15.1°C 53.9°F12.2°C 83% 3.5 mph NE5.6 kmh NE 11.5 mph18.5 kmh 30.36 in1028.1 mb - 0.00 in0.0 mm 0.00 in0.0 mm
05:10 AM 58.8°F14.9°C 54.0°F12.2°C 84% 3.5 mph NE5.6 kmh NE 6.9 mph11.1 kmh 30.36 in1028.1 mb - 0.00 in0.0 mm 0.00 in0.0 mm
05:00 AM 58.7°F14.8°C 53.9°F12.2°C 84% 3.5 mph E5.6 kmh E 6.9 mph11.1 kmh 30.36 in1028.1 mb - 0.00 in0.0 mm 0.00 in0.0 mm
04:50 AM 58.5°F14.7°C 54.0°F12.2°C 85% 3.5 mph ENE5.6 kmh ENE 6.9 mph11.1 kmh 30.36 in1028.1 mb - 0.00 in0.0 mm 0.00 in0.0 mm
04:40 AM 58.4°F14.7°C 53.9°F12.2°C 85% 2.3 mph ENE3.7 kmh ENE 6.9 mph11.1 kmh 30.36 in1028.1 mb - 0.00 in0.0 mm 0.00 in0.0 mm
04:30 AM 58.4°F14.7°C 53.9°F12.2°C 85% 2.3 mph NE3.7 kmh NE 5.8 mph9.3 kmh 30.36 in1028.1 mb - 0.00 in0.0 mm 0.00 in0.0 mm
04:20 AM 58.4°F14.7°C 53.9°F12.2°C 85% 3.5 mph NE5.6 kmh NE 5.8 mph9.3 kmh 30.36 in1028.1 mb - 0.00 in0.0 mm 0.00 in0.0 mm
04:10 AM 58.4°F14.7°C 53.9°F12.2°C 85% 3.5 mph E5.6 kmh E 8.1 mph13.0 kmh 30.35 in1027.8 mb - 0.00 in0.0 mm 0.00 in0.0 mm
04:00 AM 58.4°F14.7°C 53.9°F12.2°C 85% 3.5 mph ENE5.6 kmh ENE 9.2 mph14.8 kmh 30.35 in1027.8 mb - 0.00 in0.0 mm 0.00 in0.0 mm
03:50 AM 58.4°F14.7°C 53.9°F12.2°C 85% 4.6 mph E7.4 kmh E 11.5 mph18.5 kmh 30.35 in1027.8 mb - 0.00 in0.0 mm 0.00 in0.0 mm
03:40 AM 58.5°F14.7°C 54.3°F12.4°C 86% 4.6 mph E7.4 kmh E 9.2 mph14.8 kmh 30.35 in1027.8 mb - 0.00 in0.0 mm 0.00 in0.0 mm
03:30 AM 58.6°F14.8°C 54.4°F12.4°C 86% 3.5 mph ENE5.6 kmh ENE 6.9 mph11.1 kmh 30.34 in1027.4 mb - 0.00 in0.0 mm 0.00 in0.0 mm
03:20 AM 58.6°F14.8°C 54.4°F12.4°C 86% 4.6 mph ENE7.4 kmh ENE 6.9 mph11.1 kmh 30.34 in1027.4 mb - 0.00 in0.0 mm 0.00 in0.0 mm
03:10 AM 58.7°F14.8°C 54.5°F12.5°C 86% 4.6 mph ENE7.4 kmh ENE 9.2 mph14.8 kmh 30.34 in1027.4 mb - 0.00 in0.0 mm 0.00 in0.0 mm
03:00 AM 58.8°F14.9°C 54.6°F12.6°C 86% 3.5 mph ENE5.6 kmh ENE 5.8 mph9.3 kmh 30.34 in1027.4 mb - 0.00 in0.0 mm 0.00 in0.0 mm
02:50 AM 58.8°F14.9°C 54.6°F12.6°C 86% 5.8 mph E9.3 kmh E 11.5 mph18.5 kmh 30.35 in1027.8 mb - 0.00 in0.0 mm 0.00 in0.0 mm
02:40 AM 58.9°F14.9°C 54.7°F12.6°C 86% 3.5 mph ENE5.6 kmh ENE 4.6 mph7.4 kmh 30.35 in1027.8 mb - 0.00 in0.0 mm 0.00 in0.0 mm
02:30 AM 58.8°F14.9°C 54.3°F12.4°C 85% 3.5 mph E5.6 kmh E 5.8 mph9.3 kmh 30.35 in1027.8 mb - 0.00 in0.0 mm 0.00 in0.0 mm
02:20 AM 58.9°F14.9°C 54.4°F12.4°C 85% 2.3 mph ENE3.7 kmh ENE 5.8 mph9.3 kmh 30.35 in1027.8 mb - 0.00 in0.0 mm 0.00 in0.0 mm
02:10 AM 59.0°F15.0°C 54.5°F12.5°C 85% 2.3 mph NE3.7 kmh NE 5.8 mph9.3 kmh 30.34 in1027.4 mb - 0.00 in0.0 mm 0.00 in0.0 mm
02:00 AM 59.0°F15.0°C 54.5°F12.5°C 85% 1.2 mph ENE1.9 kmh ENE 2.3 mph3.7 kmh 30.35 in1027.8 mb - 0.00 in0.0 mm 0.00 in0.0 mm
01:50 AM 59.0°F15.0°C 54.5°F12.5°C 85% 3.5 mph N5.6 kmh N 5.8 mph9.3 kmh 30.34 in1027.4 mb - 0.00 in0.0 mm 0.00 in0.0 mm
01:40 AM 59.0°F15.0°C 54.2°F12.3°C 84% 2.3 mph E3.7 kmh E 8.1 mph13.0 kmh 30.35 in1027.8 mb - 0.00 in0.0 mm 0.00 in0.0 mm
01:30 AM 59.1°F15.1°C 54.3°F12.4°C 84% 4.6 mph ENE7.4 kmh ENE 8.1 mph13.0 kmh 30.35 in1027.8 mb - 0.00 in0.0 mm 0.00 in0.0 mm
01:20 AM 59.2°F15.1°C 54.4°F12.4°C 84% 3.5 mph NE5.6 kmh NE 8.1 mph13.0 kmh 30.35 in1027.8 mb - 0.00 in0.0 mm 0.00 in0.0 mm
01:10 AM 59.3°F15.2°C 54.1°F12.3°C 83% 2.3 mph ENE3.7 kmh ENE 6.9 mph11.1 kmh 30.36 in1028.1 mb - 0.00 in0.0 mm 0.00 in0.0 mm
01:00 AM 59.4°F15.2°C 54.2°F12.3°C 83% 5.8 mph E9.3 kmh E 6.9 mph11.1 kmh 30.36 in1028.1 mb - 0.00 in0.0 mm 0.00 in0.0 mm
12:50 AM 59.5°F15.3°C 54.3°F12.4°C 83% 3.5 mph ENE5.6 kmh ENE 8.1 mph13.0 kmh 30.36 in1028.1 mb - 0.00 in0.0 mm 0.00 in0.0 mm
12:40 AM 59.6°F15.3°C 54.4°F12.4°C 83% 3.5 mph ENE5.6 kmh ENE 8.1 mph13.0 kmh 30.36 in1028.1 mb - 0.00 in0.0 mm 0.00 in0.0 mm
12:30 AM 59.9°F15.5°C 54.7°F12.6°C 83% 5.8 mph ENE9.3 kmh ENE 12.7 mph20.4 kmh 30.37 in1028.4 mb - 0.00 in0.0 mm 0.00 in0.0 mm
12:20 AM 60.0°F15.6°C 54.5°F12.5°C 82% 3.5 mph ENE5.6 kmh ENE 8.1 mph13.0 kmh 30.37 in1028.4 mb - 0.00 in0.0 mm 0.00 in0.0 mm
12:10 AM 60.1°F15.6°C 54.6°F12.6°C 82% 3.5 mph ENE5.6 kmh ENE 8.1 mph13.0 kmh 30.36 in1028.1 mb - 0.00 in0.0 mm 0.00 in0.0 mm
12:00 AM 60.2°F15.7°C 54.7°F12.6°C 82% 4.6 mph NE7.4 kmh NE 11.5 mph18.5 kmh 30.36 in1028.1 mb - 0.00 in0.0 mm 0.00 in0.0 mm